Time;durP1;ratioP1;P1;durP2;ratioP2;P2;SDS_P1;SDS_P2;PMS_P1;PMS_P2;Temp;Humidity;BMP_temperature;BMP_pressure;BME280_temperature;BME280_humidity;BME280_pressure;Samples;Min_cycle;Max_cycle;Signal;HPM_P1;HPM_P2
2021/05/03 00:01:03;;;;;;;2.38;1.30;;;7.90;99.90;;;;;;5014629;28;20464;-77
2021/05/03 00:03:28;;;;;;;1.35;1.20;;;7.90;99.90;;;;;;5017287;28;20029;-77
2021/05/03 00:05:57;;;;;;;4.63;1.30;;;7.90;99.90;;;;;;5005217;28;20041;-76
2021/05/03 00:08:24;;;;;;;1.60;1.25;;;7.90;99.90;;;;;;5006551;28;20029;-77
2021/05/03 00:10:50;;;;;;;2.50;1.38;;;7.90;99.90;;;;;;5007359;28;20118;-76
2021/05/03 00:13:15;;;;;;;1.52;1.23;;;7.90;99.90;;;;;;5015771;28;20108;-76
2021/05/03 00:15:41;;;;;;;5.55;1.25;;;7.90;99.90;;;;;;5023060;28;20058;-76
2021/05/03 00:18:06;;;;;;;4.28;1.52;;;7.90;99.90;;;;;;5023841;28;20472;-76
2021/05/03 00:20:32;;;;;;;2.05;1.30;;;7.90;99.90;;;;;;5019811;28;20044;-77
2021/05/03 00:22:57;;;;;;;5.45;1.73;;;7.90;99.90;;;;;;5009276;28;20022;-76
2021/05/03 00:25:23;;;;;;;1.55;1.10;;;7.90;99.90;;;;;;5008313;28;20159;-76
2021/05/03 00:27:49;;;;;;;1.75;1.50;;;7.90;99.90;;;;;;5018151;28;20053;-77
2021/05/03 00:30:15;;;;;;;2.13;1.42;;;7.90;99.90;;;;;;5016452;28;20437;-76
2021/05/03 00:32:41;;;;;;;4.05;2.08;;;7.90;99.90;;;;;;5004025;28;20033;-77
2021/05/03 00:35:07;;;;;;;1.70;1.17;;;7.90;99.90;;;;;;5004351;28;20041;-76
2021/05/03 00:37:33;;;;;;;2.35;1.75;;;7.90;99.90;;;;;;5016360;28;20022;-77
2021/05/03 00:39:58;;;;;;;5.03;1.70;;;7.80;99.90;;;;;;5005889;28;20030;-75
2021/05/03 00:42:24;;;;;;;1.60;1.40;;;7.80;99.90;;;;;;5004459;28;20022;-77
2021/05/03 00:44:51;;;;;;;3.72;1.17;;;7.80;99.90;;;;;;5010214;28;20025;-77
2021/05/03 00:47:20;;;;;;;2.97;1.40;;;7.80;99.90;;;;;;5018327;28;20030;-76
2021/05/03 00:49:46;;;;;;;3.78;2.10;;;7.80;99.90;;;;;;5021304;28;20053;-77
2021/05/03 00:52:12;;;;;;;3.03;1.50;;;7.80;99.90;;;;;;5010486;28;20069;-76
2021/05/03 00:54:38;;;;;;;2.38;1.63;;;7.80;99.90;;;;;;5018078;28;20131;-77
2021/05/03 00:57:04;;;;;;;2.53;1.10;;;7.80;99.90;;;;;;5015907;28;20432;-76
2021/05/03 00:59:30;;;;;;;3.92;1.38;;;7.80;99.90;;;;;;5025243;28;20029;-76
2021/05/03 01:01:56;;;;;;;1.42;1.30;;;7.80;99.90;;;;;;5024968;28;20472;-76
2021/05/03 01:04:21;;;;;;;1.50;1.27;;;7.70;99.90;;;;;;5022566;28;20075;-76
2021/05/03 01:06:47;;;;;;;2.33;1.17;;;7.70;99.90;;;;;;5012141;28;20439;-77
2021/05/03 01:09:12;;;;;;;3.00;1.40;;;7.60;99.90;;;;;;5007635;28;20373;-77
2021/05/03 01:11:38;;;;;;;2.70;1.20;;;7.70;99.90;;;;;;5003619;28;20026;-76
2021/05/03 01:14:04;;;;;;;2.22;1.20;;;7.70;99.90;;;;;;5020337;28;20088;-76
2021/05/03 01:16:29;;;;;;;1.58;0.98;;;7.70;99.90;;;;;;5011015;28;20093;-76
2021/05/03 01:18:55;;;;;;;8.77;1.40;;;7.70;99.90;;;;;;5015399;28;20484;-77
2021/05/03 01:21:25;;;;;;;2.72;1.08;;;7.80;99.90;;;;;;5016574;28;20033;-77
2021/05/03 01:23:50;;;;;;;1.75;1.10;;;7.80;99.90;;;;;;5011631;28;20044;-77
2021/05/03 01:26:16;;;;;;;1.95;1.63;;;7.80;99.90;;;;;;5007986;28;20030;-77
2021/05/03 01:28:41;;;;;;;0.85;0.80;;;7.70;99.90;;;;;;5016185;28;20438;-77
2021/05/03 01:31:07;;;;;;;0.98;0.88;;;7.70;99.90;;;;;;5011346;28;20073;-77
2021/05/03 01:33:32;;;;;;;1.55;1.20;;;7.70;99.90;;;;;;5014415;28;20038;-76
2021/05/03 01:35:58;;;;;;;7.70;1.88;;;7.70;99.90;;;;;;5010495;28;20056;-77
2021/05/03 01:38:23;;;;;;;3.83;1.48;;;7.70;99.90;;;;;;5006259;28;20397;-77
2021/05/03 01:40:49;;;;;;;1.35;1.02;;;7.60;99.90;;;;;;5016128;28;20557;-77
2021/05/03 01:43:22;;;;;;;2.25;1.50;;;7.60;99.90;;;;;;5014242;28;20491;-76
2021/05/03 01:45:49;;;;;;;1.17;1.00;;;7.70;99.90;;;;;;5018320;28;20029;-76
2021/05/03 01:48:18;;;;;;;1.70;1.00;;;7.60;99.90;;;;;;5010184;28;20048;-77
2021/05/03 01:50:44;;;;;;;2.10;1.17;;;7.60;99.90;;;;;;5017469;28;20049;-77
2021/05/03 01:53:10;;;;;;;7.43;1.75;;;7.60;99.90;;;;;;5022909;28;20025;-77
2021/05/03 01:55:37;;;;;;;3.33;1.65;;;7.70;99.90;;;;;;5006599;28;20029;-76
2021/05/03 01:58:04;;;;;;;2.47;1.10;;;7.70;99.90;;;;;;5008103;28;20029;-77
2021/05/03 02:00:30;;;;;;;3.75;1.08;;;7.70;99.90;;;;;;5019410;28;20531;-77
2021/05/03 02:02:56;;;;;;;2.35;1.75;;;7.70;99.90;;;;;;5013316;28;20030;-77
2021/05/03 02:05:24;;;;;;;2.15;1.30;;;7.60;99.90;;;;;;5009652;28;20036;-76
2021/05/03 02:08:04;;;;;;;4.95;1.75;;;7.50;99.90;;;;;;5007152;28;20026;-77
2021/05/03 02:10:31;;;;;;;11.20;2.17;;;7.50;99.90;;;;;;5013829;28;20443;-77
2021/05/03 02:12:57;;;;;;;3.35;1.70;;;7.50;99.90;;;;;;5010789;28;20026;-77
2021/05/03 02:15:23;;;;;;;2.80;1.30;;;7.40;99.90;;;;;;5015382;28;20053;-77
2021/05/03 02:17:49;;;;;;;2.15;1.60;;;7.50;99.90;;;;;;5008282;28;20022;-77
2021/05/03 02:20:16;;;;;;;2.75;1.98;;;7.40;99.90;;;;;;5003470;28;20548;-77
2021/05/03 02:22:42;;;;;;;3.85;1.70;;;7.30;99.90;;;;;;5012131;28;20084;-76
2021/05/03 02:25:08;;;;;;;7.80;1.73;;;7.40;99.90;;;;;;5007849;28;20053;-77
2021/05/03 02:27:33;;;;;;;3.20;1.60;;;7.40;99.90;;;;;;5006556;28;20036;-76
2021/05/03 02:29:59;;;;;;;3.97;2.03;;;7.30;99.90;;;;;;5009147;28;20116;-76
2021/05/03 02:32:24;;;;;;;8.77;2.50;;;7.20;99.90;;;;;;5009748;28;20025;-77
2021/05/03 02:34:50;;;;;;;2.97;1.65;;;7.20;99.90;;;;;;5009615;28;20025;-77
2021/05/03 02:37:15;;;;;;;3.13;1.98;;;7.10;99.90;;;;;;5013897;28;20406;-76
2021/05/03 02:39:42;;;;;;;2.25;1.58;;;7.00;99.90;;;;;;5020705;28;20105;-77
2021/05/03 02:42:13;;;;;;;4.68;2.25;;;6.90;99.90;;;;;;5005506;28;20056;-76
2021/05/03 02:44:39;;;;;;;7.10;1.38;;;6.80;99.90;;;;;;5007096;28;20279;-76
2021/05/03 02:47:06;;;;;;;4.05;2.67;;;6.90;99.90;;;;;;5012742;28;20112;-77
2021/05/03 02:49:33;;;;;;;2.17;1.35;;;6.90;99.90;;;;;;5004281;28;20025;-77
2021/05/03 02:51:58;;;;;;;2.58;1.52;;;6.90;99.90;;;;;;5008206;28;20050;-76
2021/05/03 02:54:24;;;;;;;1.38;1.20;;;6.90;99.90;;;;;;5016454;28;20140;-77
2021/05/03 02:56:49;;;;;;;3.53;1.15;;;6.80;99.90;;;;;;5010339;28;20468;-77
2021/05/03 02:59:14;;;;;;;4.10;1.48;;;6.80;99.90;;;;;;5011378;28;20025;-77
2021/05/03 03:01:40;;;;;;;6.22;1.60;;;6.70;99.90;;;;;;5015696;28;20414;-77
2021/05/03 03:04:05;;;;;;;1.67;1.33;;;6.60;99.90;;;;;;5022392;28;20021;-76
2021/05/03 03:06:31;;;;;;;3.65;1.52;;;6.60;99.90;;;;;;5019592;28;20033;-77
2021/05/03 03:08:56;;;;;;;6.85;1.55;;;6.50;99.90;;;;;;5015067;28;20523;-77
2021/05/03 03:11:22;;;;;;;3.45;1.58;;;6.60;99.90;;;;;;5014565;28;20029;-77
2021/05/03 03:13:48;;;;;;;2.33;1.70;;;6.50;99.90;;;;;;5009836;28;20018;-77
2021/05/03 03:16:21;;;;;;;1.38;1.27;;;6.50;99.90;;;;;;5023226;28;20454;-76
2021/05/03 03:18:46;;;;;;;1.75;1.35;;;6.60;99.90;;;;;;5013478;28;20033;-77
2021/05/03 03:21:12;;;;;;;4.28;1.38;;;6.60;99.90;;;;;;4999410;28;20158;-76
2021/05/03 03:23:37;;;;;;;1.38;1.17;;;6.60;99.90;;;;;;5009670;28;20045;-77
2021/05/03 03:26:02;;;;;;;7.10;1.70;;;6.60;99.90;;;;;;5014111;28;20531;-77
2021/05/03 03:28:28;;;;;;;3.55;2.03;;;6.60;99.90;;;;;;5013573;28;20092;-77
2021/05/03 03:30:53;;;;;;;4.55;1.98;;;6.60;99.90;;;;;;5019472;28;20022;-77
2021/05/03 03:33:19;;;;;;;3.50;1.85;;;6.60;99.90;;;;;;5021430;28;20391;-77
2021/05/03 03:35:44;;;;;;;3.45;1.90;;;6.60;99.90;;;;;;5011816;28;20026;-77
2021/05/03 03:38:10;;;;;;;4.65;1.65;;;6.60;99.90;;;;;;5011214;28;20018;-77
2021/05/03 03:40:35;;;;;;;5.50;2.17;;;6.50;99.90;;;;;;5003104;28;20384;-77
2021/05/03 03:43:01;;;;;;;5.20;1.63;;;6.50;99.90;;;;;;5017463;28;20029;-77
2021/05/03 03:45:26;;;;;;;5.55;1.60;;;6.50;99.90;;;;;;5010699;28;20037;-77
2021/05/03 03:47:52;;;;;;;2.42;1.92;;;6.50;99.90;;;;;;5007580;28;20120;-77
2021/05/03 03:50:17;;;;;;;2.85;1.75;;;6.50;99.90;;;;;;5014787;28;20025;-76
2021/05/03 03:52:43;;;;;;;3.08;1.88;;;6.50;99.90;;;;;;5010318;28;20088;-76
2021/05/03 03:55:09;;;;;;;3.38;1.63;;;6.50;99.90;;;;;;5006313;28;20079;-77
2021/05/03 03:57:34;;;;;;;1.40;1.15;;;6.50;99.90;;;;;;5003887;28;20029;-76
2021/05/03 04:00:00;;;;;;;1.63;1.30;;;6.50;99.90;;;;;;5003232;28;20081;-77
2021/05/03 04:02:27;;;;;;;4.57;1.52;;;6.50;99.90;;;;;;5018717;28;20024;-76
2021/05/03 04:05:04;;;;;;;2.85;2.00;;;6.50;99.90;;;;;;5011211;28;20052;-77
2021/05/03 04:07:46;;;;;;;2.92;1.63;;;6.50;99.90;;;;;;5011271;28;20030;-81
2021/05/03 04:23:50;;;;;;;2.35;1.50;;;6.40;99.90;;;;;;5007763;28;20030;-75
2021/05/03 04:26:18;;;;;;;3.50;1.55;;;6.40;99.90;;;;;;5008054;28;20512;-75
2021/05/03 04:28:45;;;;;;;6.35;1.85;;;6.30;99.90;;;;;;5010108;28;20040;-75
2021/05/03 04:31:11;;;;;;;4.15;1.48;;;6.30;99.90;;;;;;5012687;28;20026;-75
2021/05/03 04:33:36;;;;;;;3.33;1.27;;;6.40;99.90;;;;;;5009047;28;20091;-75
2021/05/03 04:36:02;;;;;;;3.58;1.60;;;6.40;99.90;;;;;;5013729;28;20022;-75
2021/05/03 04:38:28;;;;;;;4.45;1.73;;;6.30;99.90;;;;;;5014138;28;20065;-75
2021/05/03 04:40:53;;;;;;;2.00;1.27;;;6.40;99.90;;;;;;5021262;28;20405;-79
2021/05/03 04:43:19;;;;;;;2.03;1.42;;;6.40;99.90;;;;;;5020485;28;20588;-79
2021/05/03 04:45:45;;;;;;;1.70;1.30;;;6.40;99.90;;;;;;5016281;28;20025;-80
2021/05/03 04:48:10;;;;;;;1.75;1.55;;;6.40;99.90;;;;;;5021090;28;20380;-79
2021/05/03 04:50:36;;;;;;;4.30;2.03;;;6.50;99.90;;;;;;5016659;28;20395;-84
2021/05/03 04:53:02;;;;;;;3.13;1.52;;;6.50;99.90;;;;;;5011170;28;20030;-81
2021/05/03 04:55:27;;;;;;;2.33;1.50;;;6.50;99.90;;;;;;5005740;28;20045;-81
2021/05/03 04:57:54;;;;;;;2.10;1.50;;;6.50;99.90;;;;;;5010647;28;20053;-80
2021/05/03 05:00:20;;;;;;;7.15;1.85;;;6.50;99.90;;;;;;5008966;28;20370;-78
2021/05/03 05:02:46;;;;;;;2.50;1.58;;;6.50;99.90;;;;;;5022983;28;20052;-79
2021/05/03 05:05:12;;;;;;;2.83;1.73;;;6.60;99.90;;;;;;5009917;28;20516;-79
2021/05/03 05:07:38;;;;;;;1.65;1.40;;;6.60;99.90;;;;;;5015459;28;20038;-78
2021/05/03 05:10:06;;;;;;;2.55;1.52;;;6.70;99.90;;;;;;5018897;28;20068;-76
2021/05/03 05:12:34;;;;;;;9.38;1.80;;;6.60;99.90;;;;;;5006380;28;20487;-78
2021/05/03 05:15:05;;;;;;;4.97;1.40;;;6.70;99.90;;;;;;5010916;28;20037;-77
2021/05/03 05:17:31;;;;;;;2.20;1.58;;;6.70;99.90;;;;;;5025944;28;20029;-77
2021/05/03 05:19:58;;;;;;;2.25;1.60;;;6.90;99.90;;;;;;5021978;28;20128;-77
2021/05/03 05:22:24;;;;;;;2.08;1.23;;;6.90;99.90;;;;;;5032213;28;20676;-76
2021/05/03 05:24:52;;;;;;;1.85;1.48;;;6.80;99.90;;;;;;5026620;28;20025;-77
2021/05/03 05:27:18;;;;;;;5.40;1.75;;;6.80;99.90;;;;;;5006000;28;20116;-77
2021/05/03 05:29:43;;;;;;;4.93;1.83;;;6.90;99.90;;;;;;5011974;28;20117;-77
2021/05/03 05:32:09;;;;;;;2.80;1.27;;;6.80;99.90;;;;;;5003425;28;20526;-77
2021/05/03 05:34:34;;;;;;;1.88;1.40;;;6.80;99.90;;;;;;5016459;28;20037;-77
2021/05/03 05:37:00;;;;;;;3.75;1.75;;;6.80;99.90;;;;;;5012936;28;20029;-77
2021/05/03 05:39:26;;;;;;;2.17;1.33;;;6.70;99.90;;;;;;5021833;28;20018;-79
2021/05/03 05:41:52;;;;;;;3.53;1.50;;;6.60;99.90;;;;;;5023130;28;20492;-81
2021/05/03 05:44:17;;;;;;;6.22;1.63;;;6.60;99.90;;;;;;5021063;28;20030;-87
2021/05/03 05:46:44;;;;;;;5.15;1.92;;;6.60;99.90;;;;;;5017492;28;20056;-89
2021/05/03 05:49:11;;;;;;;2.33;1.67;;;6.60;99.90;;;;;;5007109;28;20029;-89
2021/05/03 05:51:38;;;;;;;3.38;1.88;;;6.60;99.90;;;;;;4993648;28;20063;-83
2021/05/03 05:54:03;;;;;;;8.30;1.58;;;6.60;99.90;;;;;;5006210;28;20540;-82
2021/05/03 05:56:29;;;;;;;3.53;1.85;;;6.60;99.90;;;;;;5011479;28;20165;-81
2021/05/03 05:58:54;;;;;;;2.83;1.55;;;6.60;99.90;;;;;;5019842;28;20159;-82
2021/05/03 06:01:21;;;;;;;3.30;1.60;;;6.60;99.90;;;;;;5014428;28;20473;-80
2021/05/03 06:03:47;;;;;;;2.38;1.40;;;6.60;99.90;;;;;;5014998;28;20033;-85
2021/05/03 06:06:12;;;;;;;2.38;1.98;;;6.60;99.90;;;;;;5009865;28;20014;-81
2021/05/03 06:08:38;;;;;;;2.33;1.48;;;6.70;99.90;;;;;;5009615;28;20026;-81
2021/05/03 06:11:03;;;;;;;8.65;1.33;;;6.70;99.90;;;;;;5019755;28;20393;-80
2021/05/03 06:13:29;;;;;;;3.95;1.45;;;6.90;99.90;;;;;;5013733;28;20041;-81
2021/05/03 06:15:55;;;;;;;3.47;1.92;;;7.10;99.90;;;;;;5017613;28;20025;-80
2021/05/03 06:18:21;;;;;;;2.10;1.80;;;7.20;99.90;;;;;;5018784;28;20033;-80
2021/05/03 06:20:46;;;;;;;5.88;1.70;;;7.20;99.90;;;;;;5020536;28;20032;-80
2021/05/03 06:23:12;;;;;;;2.35;1.25;;;7.20;99.90;;;;;;5020222;28;20044;-81
2021/05/03 06:25:41;;;;;;;4.97;1.30;;;7.20;99.90;;;;;;5021041;28;20049;-81
2021/05/03 06:28:08;;;;;;;1.50;1.23;;;7.10;99.90;;;;;;5018800;28;20073;-80
2021/05/03 06:30:34;;;;;;;3.03;1.60;;;7.10;99.90;;;;;;5015374;28;20029;-80
2021/05/03 06:33:00;;;;;;;2.45;1.23;;;7.00;99.90;;;;;;5016887;28;20049;-80
2021/05/03 06:35:26;;;;;;;2.20;1.20;;;7.00;99.90;;;;;;5017194;28;20040;-80
2021/05/03 06:37:52;;;;;;;1.38;1.23;;;7.10;99.90;;;;;;5017612;28;20120;-80
2021/05/03 06:40:22;;;;;;;2.45;1.55;;;7.10;99.90;;;;;;5021025;28;20103;-79
2021/05/03 06:42:49;;;;;;;7.55;1.55;;;7.20;99.90;;;;;;5019543;28;20127;-80
2021/05/03 06:45:15;;;;;;;1.98;1.30;;;7.30;99.90;;;;;;5019953;28;20075;-81
2021/05/03 06:47:43;;;;;;;1.90;1.30;;;7.40;99.90;;;;;;5020786;28;20140;-78
2021/05/03 06:50:11;;;;;;;1.17;1.00;;;7.50;99.90;;;;;;5019411;28;20431;-80
2021/05/03 06:52:37;;;;;;;0.88;0.88;;;7.50;99.90;;;;;;5019526;28;20092;-79
2021/05/03 06:55:04;;;;;;;4.68;1.73;;;7.60;99.90;;;;;;5017156;28;20044;-79
2021/05/03 06:57:29;;;;;;;3.60;1.70;;;7.80;99.90;;;;;;5019717;28;20064;-80
2021/05/03 06:59:55;;;;;;;1.70;1.33;;;7.90;99.90;;;;;;5018767;28;20021;-79
2021/05/03 07:02:22;;;;;;;2.60;1.60;;;8.00;99.90;;;;;;5015788;28;20598;-80
2021/05/03 07:04:47;;;;;;;2.13;1.77;;;8.10;99.90;;;;;;5016086;28;20025;-80
2021/05/03 07:07:13;;;;;;;4.90;1.25;;;8.30;99.90;;;;;;5018763;28;20491;-79
2021/05/03 07:09:39;;;;;;;1.60;0.90;;;8.40;99.90;;;;;;5020474;28;20048;-80
2021/05/03 07:12:08;;;;;;;1.95;1.10;;;8.50;99.90;;;;;;5019374;28;20017;-80
2021/05/03 07:14:37;;;;;;;2.45;1.00;;;8.60;99.90;;;;;;5020062;28;20727;-80
2021/05/03 07:17:04;;;;;;;3.78;0.90;;;8.80;99.90;;;;;;5020385;28;20084;-79
2021/05/03 07:19:32;;;;;;;1.67;1.02;;;8.80;99.90;;;;;;5020832;28;20026;-79
2021/05/03 07:21:58;;;;;;;5.10;1.40;;;8.50;99.90;;;;;;5016290;28;20079;-80
2021/05/03 07:24:23;;;;;;;1.55;1.02;;;8.50;99.90;;;;;;5016050;28;20047;-78
2021/05/03 07:26:49;;;;;;;0.80;0.80;;;8.50;99.90;;;;;;5015803;28;20029;-76
2021/05/03 07:29:14;;;;;;;2.10;1.10;;;8.60;99.90;;;;;;5015360;28;20747;-76
2021/05/03 07:31:40;;;;;;;4.63;1.38;;;8.70;99.90;;;;;;5015498;28;20124;-82
2021/05/03 07:34:05;;;;;;;1.58;1.30;;;8.60;99.90;;;;;;5013976;28;20033;-80
2021/05/03 07:36:31;;;;;;;1.63;1.20;;;8.60;99.90;;;;;;5017243;28;20033;-81
2021/05/03 07:38:56;;;;;;;3.85;1.30;;;8.70;99.90;;;;;;5013590;28;20022;-79
2021/05/03 07:41:22;;;;;;;6.32;1.38;;;8.90;99.90;;;;;;5014997;28;20037;-78
2021/05/03 07:43:47;;;;;;;2.22;1.40;;;8.90;99.90;;;;;;5017290;28;20024;-79
2021/05/03 07:46:13;;;;;;;0.98;0.88;;;8.90;99.50;;;;;;5015557;28;20317;-80
2021/05/03 07:48:38;;;;;;;5.53;1.00;;;9.00;99.50;;;;;;5013618;28;20706;-79
2021/05/03 07:51:04;;;;;;;1.27;1.00;;;9.10;99.00;;;;;;5013942;28;20481;-80
2021/05/03 07:53:30;;;;;;;3.80;1.58;;;9.20;98.40;;;;;;5014226;28;20033;-80
2021/05/03 07:55:56;;;;;;;3.33;1.58;;;9.40;98.10;;;;;;5015505;28;20079;-80
2021/05/03 07:58:21;;;;;;;2.35;1.25;;;9.50;98.00;;;;;;5012569;28;20021;-81
2021/05/03 08:00:49;;;;;;;1.63;1.13;;;9.70;97.60;;;;;;5016774;28;20022;-80
2021/05/03 08:03:16;;;;;;;7.13;2.00;;;9.80;95.40;;;;;;5015078;28;20056;-80
2021/05/03 08:05:43;;;;;;;1.17;1.08;;;9.80;95.40;;;;;;5014382;28;20037;-80
2021/05/03 08:08:08;;;;;;;2.45;1.25;;;9.90;95.50;;;;;;5014201;28;20116;-79
2021/05/03 08:10:35;;;;;;;4.03;1.10;;;9.90;93.80;;;;;;5012292;28;20445;-79
2021/05/03 08:13:00;;;;;;;1.02;0.82;;;9.90;93.90;;;;;;5011401;28;20025;-78
2021/05/03 08:15:26;;;;;;;4.13;1.45;;;9.90;94.10;;;;;;5006862;28;20028;-79
2021/05/03 08:17:52;;;;;;;1.58;1.30;;;10.10;93.00;;;;;;5014205;28;20293;-81
2021/05/03 08:20:18;;;;;;;5.28;1.42;;;10.20;93.30;;;;;;5012628;28;20496;-81
2021/05/03 08:22:45;;;;;;;3.85;1.50;;;10.10;92.20;;;;;;5018325;28;20079;-84
2021/05/03 08:25:11;;;;;;;1.40;1.20;;;9.90;92.60;;;;;;5018216;28;20538;-80
2021/05/03 08:27:36;;;;;;;7.13;1.17;;;9.90;92.70;;;;;;5017961;28;20119;-82
2021/05/03 08:30:07;;;;;;;1.55;1.13;;;10.20;93.10;;;;;;5018368;28;20112;-83
2021/05/03 08:32:33;;;;;;;2.33;1.20;;;10.30;92.30;;;;;;5011674;28;20073;-85
2021/05/03 08:34:59;;;;;;;1.35;1.02;;;10.60;91.10;;;;;;5007665;28;20036;-83
2021/05/03 08:37:24;;;;;;;1.42;0.80;;;10.70;89.50;;;;;;5021755;28;20125;-83
2021/05/03 08:39:52;;;;;;;1.25;1.00;;;10.50;88.20;;;;;;5009486;28;20488;-80
2021/05/03 08:42:18;;;;;;;1.38;0.82;;;10.40;87.80;;;;;;5012880;28;20018;-79
2021/05/03 08:44:46;;;;;;;1.42;0.90;;;10.20;90.40;;;;;;5011178;28;20030;-78
2021/05/03 08:47:12;;;;;;;2.38;1.20;;;10.30;90.00;;;;;;5015459;28;20025;-78
2021/05/03 08:49:51;;;;;;;4.07;1.05;;;10.20;88.50;;;;;;5018709;28;20422;-77
2021/05/03 08:52:22;;;;;;;2.63;0.80;;;10.10;89.10;;;;;;5011163;28;20691;-75
2021/05/03 08:54:49;;;;;;;2.65;0.80;;;10.10;88.50;;;;;;5014480;28;20038;-78
2021/05/03 08:57:14;;;;;;;0.65;0.60;;;10.10;88.20;;;;;;5004584;28;20022;-82
2021/05/03 08:59:41;;;;;;;0.82;0.80;;;10.00;85.50;;;;;;5005545;28;20499;-83
2021/05/03 09:02:09;;;;;;;1.00;0.85;;;10.10;83.10;;;;;;5001619;28;20032;-83
2021/05/03 09:04:34;;;;;;;0.80;0.70;;;10.40;87.30;;;;;;5001974;28;20545;-83
2021/05/03 09:07:09;;;;;;;1.98;0.82;;;10.80;84.80;;;;;;5002956;28;20038;-82
2021/05/03 09:09:41;;;;;;;0.90;0.68;;;10.80;80.10;;;;;;5003466;28;20128;-84
2021/05/03 09:12:17;;;;;;;0.70;0.70;;;10.70;76.10;;;;;;5007901;28;20054;-84
2021/05/03 09:15:15;;;;;;;5.35;0.80;;;10.70;76.90;;;;;;5020981;28;20060;-84
2021/05/03 09:17:43;;;;;;;3.10;0.70;;;10.50;76.70;;;;;;5021870;28;20039;-83
2021/05/03 09:20:18;;;;;;;1.92;1.05;;;10.50;79.00;;;;;;5013816;28;20061;-83
2021/05/03 09:22:49;;;;;;;1.75;0.82;;;10.70;77.60;;;;;;5009629;28;20033;-83
2021/05/03 09:25:25;;;;;;;2.33;0.70;;;11.00;75.00;;;;;;5005531;28;20030;-83
2021/05/03 09:28:18;;;;;;;0.45;0.45;;;10.90;75.20;;;;;;5007494;28;20038;-84
2021/05/03 09:31:00;;;;;;;1.27;0.73;;;10.70;75.80;;;;;;5007177;28;20044;-83
2021/05/03 09:33:28;;;;;;;7.47;0.93;;;10.60;77.60;;;;;;5015503;28;20439;-82
2021/05/03 09:35:57;;;;;;;4.78;1.02;;;10.40;77.10;;;;;;5003299;28;20034;-83
2021/05/03 09:38:38;;;;;;;1.20;0.65;;;10.30;79.30;;;;;;5006223;28;20022;-84
2021/05/03 09:41:20;;;;;;;0.70;0.70;;;10.30;78.50;;;;;;5003102;28;20021;-83
2021/05/03 09:43:54;;;;;;;1.75;0.77;;;10.60;79.30;;;;;;5003478;28;20029;-82
2021/05/03 09:46:27;;;;;;;0.90;0.90;;;11.10;77.70;;;;;;5000074;28;20030;-84
2021/05/03 09:48:59;;;;;;;0.60;0.60;;;11.30;76.50;;;;;;5017363;28;20124;-84
2021/05/03 09:51:33;;;;;;;0.88;0.77;;;11.40;74.10;;;;;;5001450;28;20046;-82
2021/05/03 09:54:12;;;;;;;3.65;1.15;;;11.40;72.20;;;;;;5013737;28;20033;-83
2021/05/03 09:56:44;;;;;;;1.38;0.70;;;11.20;74.70;;;;;;5000942;28;20116;-83
2021/05/03 09:59:44;;;;;;;2.78;0.73;;;11.20;72.50;;;;;;5001528;28;20116;-83
2021/05/03 10:02:23;;;;;;;2.75;0.68;;;11.10;70.30;;;;;;5001284;28;20049;-83
2021/05/03 10:05:18;;;;;;;3.95;1.02;;;11.10;72.20;;;;;;5003482;28;20041;-83
2021/05/03 10:07:52;;;;;;;1.17;0.90;;;11.00;71.00;;;;;;4999981;28;20411;-83
2021/05/03 10:10:20;;;;;;;1.77;0.90;;;11.20;71.30;;;;;;5001557;28;20083;-84
2021/05/03 10:12:47;;;;;;;1.77;0.75;;;11.30;69.20;;;;;;5001670;28;20033;-84
2021/05/03 10:15:15;;;;;;;2.78;1.20;;;11.30;70.60;;;;;;5014008;28;20503;-84
2021/05/03 10:17:43;;;;;;;1.83;0.90;;;11.20;69.40;;;;;;5003413;28;20022;-84
2021/05/03 10:20:11;;;;;;;1.02;0.90;;;11.20;70.70;;;;;;5009006;28;20533;-84
2021/05/03 10:22:37;;;;;;;2.08;0.93;;;11.10;69.40;;;;;;5037361;28;20111;-84
2021/05/03 10:25:07;;;;;;;1.83;1.17;;;11.00;70.30;;;;;;5010640;28;20483;-84
2021/05/03 10:27:37;;;;;;;2.00;0.88;;;11.00;69.80;;;;;;5006540;28;20018;-84
2021/05/03 10:30:21;;;;;;;1.17;0.70;;;11.10;68.00;;;;;;5005130;28;20072;-83
2021/05/03 10:33:04;;;;;;;0.68;0.68;;;11.20;68.30;;;;;;5006630;28;20034;-83
2021/05/03 10:35:32;;;;;;;2.03;0.77;;;11.40;67.30;;;;;;5005898;28;20439;-83
2021/05/03 10:37:58;;;;;;;1.42;0.90;;;11.70;65.30;;;;;;5003882;28;20080;-84
2021/05/03 10:40:24;;;;;;;1.75;0.90;;;12.00;65.60;;;;;;5005945;28;20576;-83
2021/05/03 10:43:02;;;;;;;2.38;1.10;;;12.10;64.20;;;;;;5008483;28;20046;-84
2021/05/03 10:45:59;;;;;;;0.77;0.65;;;12.40;65.60;;;;;;5006650;28;20029;-83
2021/05/03 10:48:33;;;;;;;0.60;0.60;;;12.30;62.80;;;;;;5001723;28;20704;-84
2021/05/03 10:51:00;;;;;;;1.70;0.82;;;12.10;62.90;;;;;;5003289;28;20081;-83
2021/05/03 10:53:41;;;;;;;0.75;0.75;;;12.00;64.10;;;;;;5005462;28;20033;-84
2021/05/03 10:56:09;;;;;;;0.88;0.63;;;12.50;64.70;;;;;;4994585;28;20586;-83
2021/05/03 10:59:07;;;;;;;1.17;0.95;;;12.50;61.70;;;;;;5000239;28;20432;-84
2021/05/03 11:02:05;;;;;;;4.18;0.70;;;12.60;61.60;;;;;;5007155;28;20109;-83
2021/05/03 11:04:31;;;;;;;3.53;0.90;;;12.60;60.90;;;;;;5005780;28;20032;-83
2021/05/03 11:06:57;;;;;;;1.88;1.10;;;12.90;59.40;;;;;;5003155;28;20377;-83
2021/05/03 11:09:29;;;;;;;1.40;0.80;;;13.30;60.20;;;;;;5005197;28;20116;-83
2021/05/03 11:12:12;;;;;;;1.92;0.57;;;13.80;59.40;;;;;;5009720;28;20111;-83
2021/05/03 11:14:40;;;;;;;1.27;0.80;;;13.70;58.00;;;;;;5024368;28;20036;-83
2021/05/03 11:17:09;;;;;;;2.40;1.00;;;13.50;58.60;;;;;;5023050;28;20028;-82
2021/05/03 11:20:07;;;;;;;6.18;0.93;;;13.10;59.00;;;;;;5024467;28;20040;-83
2021/05/03 11:22:47;;;;;;;1.25;0.50;;;12.70;59.50;;;;;;5011619;28;20026;-83
2021/05/03 11:25:25;;;;;;;0.50;0.50;;;12.40;59.90;;;;;;5003341;28;20030;-82
2021/05/03 11:28:04;;;;;;;1.60;0.60;;;12.40;60.10;;;;;;5005170;28;20030;-82
2021/05/03 11:30:37;;;;;;;1.30;0.90;;;12.50;61.10;;;;;;5004991;28;20026;-82
2021/05/03 11:33:16;;;;;;;0.55;0.50;;;13.00;60.30;;;;;;5012413;28;20091;-83
2021/05/03 11:46:26;;;;;;;0.65;0.50;;;12.50;57.70;;;;;;5000860;28;20036;-84
2021/05/03 11:48:54;;;;;;;0.77;0.57;;;12.20;59.10;;;;;;5003985;28;20030;-84
2021/05/03 11:51:19;;;;;;;1.05;0.75;;;12.20;59.50;;;;;;5003022;28;20058;-85
2021/05/03 11:53:45;;;;;;;8.85;0.85;;;12.20;59.70;;;;;;5011116;28;20060;-83
2021/05/03 11:56:20;;;;;;;3.42;0.90;;;12.40;59.20;;;;;;5013281;28;20518;-84
2021/05/03 11:58:47;;;;;;;0.52;0.50;;;12.50;59.90;;;;;;5010040;28;20071;-83
2021/05/03 12:01:18;;;;;;;3.05;1.48;;;12.40;60.00;;;;;;5012146;28;20033;-83
2021/05/03 12:03:45;;;;;;;1.10;0.80;;;12.70;59.60;;;;;;5003565;28;20053;-83
2021/05/03 12:06:33;;;;;;;4.60;0.70;;;12.90;58.20;;;;;;5010858;28;20108;-83
2021/05/03 12:09:03;;;;;;;1.75;0.70;;;13.10;58.00;;;;;;5005609;28;20445;-83
2021/05/03 12:11:29;;;;;;;0.70;0.70;;;13.00;57.40;;;;;;5008346;28;20026;-82
2021/05/03 12:13:57;;;;;;;0.55;0.55;;;12.80;56.60;;;;;;5015041;28;20060;-81
2021/05/03 12:16:37;;;;;;;0.88;0.75;;;12.70;57.00;;;;;;5010989;28;20112;-82
2021/05/03 12:19:12;;;;;;;0.93;0.40;;;12.70;56.90;;;;;;5006774;28;20030;-82
2021/05/03 12:21:38;;;;;;;0.60;0.50;;;12.60;57.50;;;;;;5011137;28;20661;-83
2021/05/03 12:24:19;;;;;;;1.77;0.60;;;12.70;57.20;;;;;;5007737;28;20030;-83
2021/05/03 12:26:52;;;;;;;3.47;0.93;;;12.70;58.20;;;;;;5024099;28;20568;-84
2021/05/03 12:29:28;;;;;;;3.22;0.57;;;12.80;58.30;;;;;;5011675;28;20168;-84
2021/05/03 12:31:54;;;;;;;2.70;0.80;;;12.80;57.40;;;;;;5007733;28;20547;-83
2021/05/03 12:34:22;;;;;;;3.22;0.77;;;12.80;56.90;;;;;;5006540;28;20129;-85
2021/05/03 12:37:17;;;;;;;1.02;0.55;;;12.70;57.40;;;;;;5008210;28;20110;-83
2021/05/03 12:40:00;;;;;;;1.10;0.80;;;12.70;57.90;;;;;;4990895;28;20463;-84
2021/05/03 12:42:40;;;;;;;0.40;0.40;;;12.70;58.20;;;;;;5002668;28;20030;-83
2021/05/03 12:45:26;;;;;;;2.47;1.23;;;13.40;56.80;;;;;;5002626;28;20117;-85
2021/05/03 12:48:10;;;;;;;1.73;1.00;;;13.60;56.50;;;;;;5008195;28;20041;-84
2021/05/03 12:56:03;;;;;;;1.13;0.82;;;12.60;58.70;;;;;;5009029;28;20511;-83
2021/05/03 12:58:53;;;;;;;1.63;1.00;;;12.20;60.40;;;;;;5021433;28;20030;-83
2021/05/03 13:04:02;;;;;;;0.70;0.60;;;11.80;61.90;;;;;;5013490;28;20066;-82
2021/05/03 13:06:36;;;;;;;0.88;0.80;;;11.90;62.90;;;;;;5020760;28;20041;-80
2021/05/03 13:09:25;;;;;;;4.90;1.08;;;12.00;63.30;;;;;;5025805;28;20029;-82
2021/05/03 13:29:12;;;;;;;3.38;2.03;;;11.80;65.30;;;;;;5012655;28;20025;-81
2021/05/03 13:31:40;;;;;;;1.63;1.20;;;11.80;66.70;;;;;;5008147;28;20030;-82
2021/05/03 13:34:09;;;;;;;1.08;1.00;;;11.70;67.90;;;;;;5017993;28;20433;-80
2021/05/03 13:36:36;;;;;;;0.95;0.93;;;11.40;73.60;;;;;;5012585;28;20105;-85
2021/05/03 13:39:04;;;;;;;1.38;1.20;;;11.00;79.40;;;;;;5011017;28;20473;-82
2021/05/03 13:41:36;;;;;;;3.53;1.20;;;10.90;81.70;;;;;;5014134;28;20037;-82
2021/05/03 13:44:03;;;;;;;2.08;1.17;;;11.00;82.90;;;;;;5022192;28;20060;-82
2021/05/03 13:46:29;;;;;;;4.15;1.35;;;11.10;82.40;;;;;;5027529;28;20033;-80
2021/05/03 13:48:54;;;;;;;3.63;1.40;;;11.10;80.40;;;;;;5014109;28;20699;-81
2021/05/03 13:51:21;;;;;;;2.05;1.40;;;11.20;80.80;;;;;;5013322;28;20073;-78